createdAt,value
2019-03-05T00:04:56.057Z,0.20
2019-03-05T00:10:00.324Z,0.50
2019-03-05T00:15:04.848Z,0.00
2019-03-05T00:20:11.029Z,0.00
2019-03-05T00:25:17.489Z,1.00
2019-03-05T00:30:46.575Z,0.50
2019-03-05T00:36:40.995Z,0.00
2019-03-05T00:41:58.593Z,0.20
2019-03-05T00:47:18.906Z,1.00
2019-03-05T00:52:33.462Z,0.75
2019-03-05T00:57:49.986Z,0.50
2019-03-05T01:03:13.370Z,0.00
2019-03-05T01:08:19.592Z,0.60
2019-03-05T01:13:23.448Z,0.00
2019-03-05T01:18:27.670Z,0.00
2019-03-05T01:23:31.732Z,0.00
2019-03-05T01:28:35.838Z,0.40
2019-03-05T01:33:49.640Z,0.50
2019-03-05T01:39:02.587Z,0.00
2019-03-05T01:44:06.740Z,0.20
2019-03-05T01:49:10.857Z,0.00
2019-03-05T01:54:14.985Z,0.00
2019-03-05T01:59:19.039Z,1.00
2019-03-05T02:04:23.245Z,0.25
2019-03-05T02:09:27.565Z,0.00
2019-03-05T02:14:31.691Z,1.00
2019-03-05T02:19:37.927Z,0.60
2019-03-05T02:25:19.340Z,1.00
2019-03-05T02:30:37.491Z,0.00
2019-03-05T02:36:13.094Z,1.00
2019-03-05T02:41:40.974Z,1.50
2019-03-05T02:47:00.364Z,0.60
2019-03-05T02:52:45.041Z,0.00
2019-03-05T02:57:47.594Z,0.00
2019-03-05T03:02:58.776Z,0.00
2019-03-05T03:08:02.994Z,1.25
2019-03-05T03:13:07.186Z,1.40
2019-03-05T03:18:11.355Z,1.00
2019-03-05T03:23:15.460Z,1.75
2019-03-05T03:28:19.494Z,0.00
2019-03-05T03:33:23.533Z,1.00
2019-03-05T03:38:27.535Z,0.00
2019-03-05T03:43:31.577Z,1.00
2019-03-05T03:48:35.606Z,0.00
2019-03-05T03:53:39.672Z,0.00
2019-03-05T03:58:43.761Z,1.25
2019-03-05T04:03:47.963Z,0.00
2019-03-05T04:08:52.152Z,0.00
2019-03-05T04:13:59.528Z,1.00
2019-03-05T04:19:03.562Z,0.50
2019-03-05T04:24:07.588Z,0.00
2019-03-05T04:29:11.721Z,0.00
2019-03-05T04:34:15.863Z,0.00
2019-03-05T04:39:19.958Z,0.00
2019-03-05T04:44:32.324Z,1.00
2019-03-05T04:49:44.018Z,0.80
2019-03-05T04:54:48.060Z,1.00
2019-03-05T04:59:52.089Z,0.00
2019-03-05T05:04:56.218Z,1.00
2019-03-05T05:10:00.337Z,0.40
2019-03-05T05:15:05.618Z,0.50
2019-03-05T05:20:09.829Z,0.00
2019-03-05T05:25:13.870Z,0.75
2019-03-05T05:30:38.024Z,0.00
2019-03-05T05:35:42.248Z,1.00
2019-03-05T05:40:46.726Z,1.00
2019-03-05T05:45:51.980Z,0.50
2019-03-05T05:50:56.106Z,0.60
2019-03-05T05:56:00.201Z,0.00
2019-03-05T06:01:07.878Z,0.00
2019-03-05T06:06:11.917Z,0.00
2019-03-05T06:11:16.048Z,1.80
2019-03-05T06:16:20.130Z,1.00
2019-03-05T06:21:24.149Z,0.75
2019-03-05T06:26:28.171Z,1.40
2019-03-05T06:31:32.261Z,1.00
2019-03-05T06:36:55.918Z,1.00
2019-03-05T06:41:59.975Z,0.20
2019-03-05T06:47:04.112Z,0.20
2019-03-05T06:52:08.205Z,0.50
2019-03-05T06:57:12.268Z,0.20
2019-03-05T07:02:16.386Z,1.20
2019-03-05T07:07:20.435Z,1.00
2019-03-05T07:12:56.722Z,1.25
2019-03-05T07:18:06.026Z,0.00
2019-03-05T07:23:30.538Z,0.00
2019-03-05T07:28:34.686Z,0.00
2019-03-05T07:33:38.795Z,0.75
2019-03-05T07:38:42.895Z,0.00
2019-03-05T07:43:46.960Z,0.00
2019-03-05T07:48:51.000Z,1.00
2019-03-05T07:53:55.015Z,1.00
2019-03-05T07:58:59.036Z,1.00
2019-03-05T08:04:03.491Z,1.60
2019-03-05T08:09:35.572Z,0.00
2019-03-05T08:15:03.394Z,1.00
2019-03-05T08:20:09.626Z,0.00
2019-03-05T08:25:14.182Z,2.25
2019-03-05T08:30:18.613Z,1.00
2019-03-05T08:35:22.845Z,1.00
2019-03-05T08:40:27.298Z,1.00
2019-03-05T08:45:31.594Z,0.00
2019-03-05T08:50:35.957Z,0.25
2019-03-05T08:55:40.307Z,0.00
2019-03-05T09:00:44.549Z,0.00
2019-03-05T09:05:48.817Z,2.25
2019-03-05T09:10:54.209Z,0.00
2019-03-05T09:15:58.523Z,0.40
2019-03-05T09:21:02.833Z,0.00
2019-03-05T09:26:07.213Z,0.25
2019-03-05T09:31:11.506Z,0.00
2019-03-05T09:36:15.735Z,0.00
2019-03-05T09:41:20.057Z,1.00
2019-03-05T09:46:24.244Z,0.40
2019-03-05T09:51:28.489Z,0.75
2019-03-05T09:56:32.683Z,1.00
2019-03-05T10:01:37.046Z,0.00
2019-03-05T10:06:41.333Z,0.00
2019-03-05T10:11:45.580Z,0.00
2019-03-05T10:16:49.790Z,1.50
2019-03-05T10:21:54.073Z,1.25
2019-03-05T10:26:58.410Z,0.00
2019-03-05T10:32:02.681Z,0.00
2019-03-05T10:37:12.831Z,0.00
2019-03-05T10:42:12.937Z,0.00
2019-03-05T10:47:17.098Z,0.20
2019-03-05T10:52:21.237Z,0.80
2019-03-05T10:57:25.524Z,0.00
2019-03-05T11:02:29.767Z,1.00
2019-03-05T11:07:33.988Z,0.50
2019-03-05T11:12:39.296Z,0.25
2019-03-05T11:17:43.528Z,0.00
2019-03-05T11:22:48.237Z,0.20
2019-03-05T11:27:52.595Z,0.00
2019-03-05T11:32:56.916Z,0.00
2019-03-05T11:38:01.151Z,0.00
2019-03-05T11:43:13.360Z,0.60
2019-03-05T11:48:17.782Z,1.00
2019-03-05T11:53:21.950Z,1.00
2019-03-05T11:58:26.270Z,1.20
2019-03-05T12:03:30.637Z,1.00
2019-03-05T12:08:34.874Z,0.40
2019-03-05T12:13:39.362Z,0.00
2019-03-05T12:18:43.513Z,0.00
2019-03-05T12:23:48.381Z,1.00
2019-03-05T12:28:52.804Z,0.50
2019-03-05T12:33:57.004Z,0.00
2019-03-05T12:39:01.259Z,0.00
2019-03-05T12:44:05.888Z,0.00
2019-03-05T12:49:10.512Z,1.00
2019-03-05T12:54:15.067Z,0.00
2019-03-05T12:59:19.662Z,0.40
2019-03-05T13:04:23.769Z,1.20
2019-03-05T13:09:27.913Z,0.00
2019-03-05T13:14:32.327Z,1.25
2019-03-05T13:19:38.702Z,2.80
2019-03-05T13:24:42.545Z,5.20
2019-03-05T13:29:46.810Z,12.00
2019-03-05T13:34:51.321Z,13.00
2019-03-05T13:39:58.200Z,12.60
2019-03-05T13:45:05.322Z,15.75
2019-03-05T13:50:30.152Z,20.40
2019-03-05T13:56:30.683Z,24.60
2019-03-05T14:01:35.020Z,17.50
2019-03-05T14:06:49.640Z,19.80
2019-03-05T14:11:54.312Z,23.25
2019-03-05T14:17:31.332Z,27.40
2019-03-05T14:22:35.782Z,30.80
2019-03-05T14:27:45.299Z,35.50
2019-03-05T14:32:49.694Z,37.40
2019-03-05T14:37:53.849Z,43.50
2019-03-05T14:42:58.448Z,43.00
2019-03-05T14:48:04.349Z,45.60
2019-03-05T14:53:09.420Z,46.25
2019-03-05T14:58:23.041Z,40.75
2019-03-05T15:03:27.383Z,44.75
2019-03-05T15:08:31.856Z,47.40
2019-03-05T15:24:40.481Z,47.40
2019-03-05T15:29:45.504Z,45.60
2019-03-05T16:23:33.144Z,37.20
2019-03-05T16:28:39.150Z,30.60
2019-03-05T16:33:50.673Z,35.00
2019-03-05T16:39:03.248Z,39.80
2019-03-05T16:44:16.945Z,33.00
2019-03-05T16:49:40.049Z,40.75
2019-03-05T16:55:03.298Z,36.00
2019-03-05T17:00:24.308Z,35.00
2019-03-05T17:05:38.119Z,36.20
2019-03-05T17:10:51.900Z,32.80
2019-03-05T17:15:56.210Z,33.20
2019-03-05T17:21:00.780Z,34.50
2019-03-05T17:26:05.675Z,30.60
2019-03-05T17:31:10.128Z,29.00
2019-03-05T17:36:16.474Z,30.00
2019-03-05T17:41:22.320Z,31.00
2019-03-05T17:46:31.883Z,29.50
2019-03-05T17:51:38.563Z,28.25
2019-03-05T17:56:47.689Z,27.40
2019-03-05T18:01:52.396Z,27.75
2019-03-05T18:06:56.885Z,24.60
2019-03-05T18:12:01.164Z,23.60
2019-03-05T18:17:05.637Z,24.40
2019-03-05T18:22:10.025Z,23.00
2019-03-05T18:27:14.403Z,26.40
2019-03-05T18:32:18.793Z,20.25
2019-03-05T18:37:23.025Z,20.50
2019-03-05T19:04:44.347Z,20.75
2019-03-05T19:09:48.530Z,18.80
2019-03-05T19:57:32.185Z,16.40
2019-03-05T20:08:05.822Z,13.60
2019-03-05T20:13:10.467Z,12.20
2019-03-05T20:18:14.852Z,14.50
2019-03-05T20:23:24.718Z,14.50
2019-03-05T20:28:29.154Z,11.60
2019-03-05T20:33:33.677Z,13.20
2019-03-05T20:38:39.934Z,10.25
2019-03-05T20:43:44.476Z,11.75
2019-03-05T20:48:48.995Z,11.00
2019-03-05T20:53:53.392Z,7.50
2019-03-05T20:58:58.150Z,10.50
2019-03-05T21:04:13.070Z,9.50
2019-03-05T21:09:24.596Z,8.00
2019-03-05T21:14:28.817Z,7.50
2019-03-05T21:19:33.276Z,10.25
2019-03-05T21:24:37.506Z,9.00
2019-03-05T21:29:41.693Z,7.80
2019-03-05T21:34:47.037Z,7.80
2019-03-05T21:39:51.525Z,10.00
2019-03-05T21:44:55.639Z,7.40
2019-03-05T21:49:59.802Z,8.75
2019-03-05T21:55:04.237Z,6.40
2019-03-05T22:00:12.405Z,7.40
2019-03-05T22:05:16.819Z,8.25
2019-03-05T22:10:21.207Z,7.80
2019-03-05T22:15:25.653Z,7.80
2019-03-05T22:20:29.739Z,9.00
2019-03-05T22:25:34.217Z,6.20
2019-03-05T22:30:38.510Z,6.40
2019-03-05T22:35:43.090Z,7.00
2019-03-05T22:40:47.231Z,10.00
2019-03-05T22:45:51.842Z,6.40
2019-03-05T22:50:56.044Z,8.00
2019-03-05T22:56:00.555Z,8.60
2019-03-05T23:01:12.016Z,7.20
2019-03-05T23:06:16.659Z,7.40
2019-03-05T23:11:21.055Z,6.00
2019-03-05T23:16:25.311Z,5.75
2019-03-05T23:21:29.673Z,7.20
2019-03-05T23:26:34.036Z,5.75
2019-03-05T23:31:38.530Z,7.00
2019-03-05T23:36:42.631Z,6.75
2019-03-05T23:41:46.748Z,7.00
2019-03-05T23:46:50.797Z,7.80
2019-03-05T23:51:54.846Z,6.75
2019-03-05T23:56:59.067Z,5.60
